sensor_id;sensor_type;location;lat;lon;timestamp;pressure;altitude;pressure_sealevel;temperature;humidity
21828;BME280;11076;47.942;11.804;2022-12-18T00:04:49;95280.25;;;-5.48;100.00
21828;BME280;11076;47.942;11.804;2022-12-18T00:09:52;95278.16;;;-5.55;100.00
21828;BME280;11076;47.942;11.804;2022-12-18T00:14:54;95282.72;;;-5.59;100.00
21828;BME280;11076;47.942;11.804;2022-12-18T00:19:56;95290.34;;;-5.56;100.00
21828;BME280;11076;47.942;11.804;2022-12-18T00:24:59;95280.31;;;-5.62;100.00
21828;BME280;11076;47.942;11.804;2022-12-18T00:30:01;95268.03;;;-5.60;100.00
21828;BME280;11076;47.942;11.804;2022-12-18T00:35:05;95267.19;;;-5.61;100.00
21828;BME280;11076;47.942;11.804;2022-12-18T00:40:08;95280.50;;;-5.65;100.00
21828;BME280;11076;47.942;11.804;2022-12-18T00:45:11;95286.44;;;-5.63;100.00
21828;BME280;11076;47.942;11.804;2022-12-18T00:50:14;95292.53;;;-5.63;100.00
21828;BME280;11076;47.942;11.804;2022-12-18T00:55:17;95292.22;;;-5.58;100.00
21828;BME280;11076;47.942;11.804;2022-12-18T01:00:21;95291.81;;;-5.52;100.00
21828;BME280;11076;47.942;11.804;2022-12-18T01:05:24;95296.09;;;-5.51;100.00
21828;BME280;11076;47.942;11.804;2022-12-18T01:10:27;95307.28;;;-5.49;100.00
21828;BME280;11076;47.942;11.804;2022-12-18T01:15:32;95296.63;;;-5.46;100.00
21828;BME280;11076;47.942;11.804;2022-12-18T01:20:34;95311.13;;;-5.42;100.00
21828;BME280;11076;47.942;11.804;2022-12-18T01:25:37;95329.72;;;-5.33;100.00
21828;BME280;11076;47.942;11.804;2022-12-18T01:30:42;95343.63;;;-5.33;100.00
21828;BME280;11076;47.942;11.804;2022-12-18T01:35:45;95339.00;;;-5.29;100.00
21828;BME280;11076;47.942;11.804;2022-12-18T01:40:48;95343.78;;;-5.36;100.00
21828;BME280;11076;47.942;11.804;2022-12-18T01:45:51;95345.91;;;-5.28;100.00
21828;BME280;11076;47.942;11.804;2022-12-18T01:50:53;95347.19;;;-5.21;100.00
21828;BME280;11076;47.942;11.804;2022-12-18T01:55:56;95360.31;;;-5.23;100.00
21828;BME280;11076;47.942;11.804;2022-12-18T02:01:01;95350.31;;;-5.16;100.00
21828;BME280;11076;47.942;11.804;2022-12-18T02:06:13;95358.25;;;-5.17;100.00
21828;BME280;11076;47.942;11.804;2022-12-18T02:16:52;95345.09;;;-5.16;100.00
21828;BME280;11076;47.942;11.804;2022-12-18T02:22:18;95343.25;;;-5.14;100.00
21828;BME280;11076;47.942;11.804;2022-12-18T02:27:29;95340.84;;;-5.17;100.00
21828;BME280;11076;47.942;11.804;2022-12-18T02:32:40;95348.84;;;-5.20;100.00
21828;BME280;11076;47.942;11.804;2022-12-18T02:37:46;95351.69;;;-5.23;100.00
21828;BME280;11076;47.942;11.804;2022-12-18T02:42:50;95345.41;;;-5.21;100.00
21828;BME280;11076;47.942;11.804;2022-12-18T02:47:53;95341.69;;;-5.16;100.00
21828;BME280;11076;47.942;11.804;2022-12-18T03:08:42;95340.13;;;-5.19;100.00
21828;BME280;11076;47.942;11.804;2022-12-18T03:13:51;95341.78;;;-5.18;100.00
21828;BME280;11076;47.942;11.804;2022-12-18T03:18:59;95340.63;;;-5.14;100.00
21828;BME280;11076;47.942;11.804;2022-12-18T03:24:06;95339.25;;;-5.20;100.00
21828;BME280;11076;47.942;11.804;2022-12-18T03:29:38;95337.28;;;-5.16;100.00
21828;BME280;11076;47.942;11.804;2022-12-18T03:34:40;95330.50;;;-5.18;100.00
21828;BME280;11076;47.942;11.804;2022-12-18T03:39:47;95322.59;;;-5.17;100.00
21828;BME280;11076;47.942;11.804;2022-12-18T03:45:12;95323.72;;;-5.21;100.00
21828;BME280;11076;47.942;11.804;2022-12-18T03:50:21;95332.78;;;-5.27;100.00
21828;BME280;11076;47.942;11.804;2022-12-18T03:55:30;95328.59;;;-5.29;100.00
21828;BME280;11076;47.942;11.804;2022-12-18T04:00:38;95338.81;;;-5.26;100.00
21828;BME280;11076;47.942;11.804;2022-12-18T04:05:44;95341.94;;;-5.34;100.00
21828;BME280;11076;47.942;11.804;2022-12-18T04:10:49;95344.53;;;-5.34;100.00
21828;BME280;11076;47.942;11.804;2022-12-18T04:15:53;95342.13;;;-5.37;100.00
21828;BME280;11076;47.942;11.804;2022-12-18T04:20:57;95336.81;;;-5.35;100.00
21828;BME280;11076;47.942;11.804;2022-12-18T04:25:59;95349.09;;;-5.37;100.00
21828;BME280;11076;47.942;11.804;2022-12-18T04:31:28;95335.31;;;-5.40;100.00
21828;BME280;11076;47.942;11.804;2022-12-18T04:36:31;95346.50;;;-5.37;100.00
21828;BME280;11076;47.942;11.804;2022-12-18T04:41:33;95353.41;;;-5.36;100.00
21828;BME280;11076;47.942;11.804;2022-12-18T04:46:37;95360.47;;;-5.38;100.00
21828;BME280;11076;47.942;11.804;2022-12-18T04:51:39;95360.47;;;-5.38;100.00
21828;BME280;11076;47.942;11.804;2022-12-18T04:56:42;95344.00;;;-5.39;100.00
21828;BME280;11076;47.942;11.804;2022-12-18T05:01:44;95360.47;;;-5.38;100.00
21828;BME280;11076;47.942;11.804;2022-12-18T05:06:47;95371.44;;;-5.33;100.00
21828;BME280;11076;47.942;11.804;2022-12-18T05:11:50;95372.16;;;-5.31;100.00
21828;BME280;11076;47.942;11.804;2022-12-18T05:16:52;95386.34;;;-5.35;100.00
21828;BME280;11076;47.942;11.804;2022-12-18T05:21:56;95386.16;;;-5.32;100.00
21828;BME280;11076;47.942;11.804;2022-12-18T05:26:59;95382.72;;;-5.33;100.00
21828;BME280;11076;47.942;11.804;2022-12-18T05:32:01;95391.38;;;-5.32;100.00
21828;BME280;11076;47.942;11.804;2022-12-18T05:37:04;95397.16;;;-5.42;100.00
21828;BME280;11076;47.942;11.804;2022-12-18T05:42:06;95396.50;;;-5.45;100.00
21828;BME280;11076;47.942;11.804;2022-12-18T05:47:09;95393.94;;;-5.60;100.00
21828;BME280;11076;47.942;11.804;2022-12-18T05:52:11;95403.34;;;-5.57;100.00
21828;BME280;11076;47.942;11.804;2022-12-18T05:57:13;95405.19;;;-5.59;100.00
21828;BME280;11076;47.942;11.804;2022-12-18T06:02:16;95407.91;;;-5.61;100.00
21828;BME280;11076;47.942;11.804;2022-12-18T06:07:18;95420.81;;;-5.59;100.00
21828;BME280;11076;47.942;11.804;2022-12-18T06:12:20;95422.97;;;-5.66;100.00
21828;BME280;11076;47.942;11.804;2022-12-18T06:17:23;95421.84;;;-5.62;100.00
21828;BME280;11076;47.942;11.804;2022-12-18T06:22:30;95419.34;;;-5.63;100.00
21828;BME280;11076;47.942;11.804;2022-12-18T06:27:33;95411.00;;;-5.68;100.00
21828;BME280;11076;47.942;11.804;2022-12-18T06:32:38;95425.53;;;-5.78;100.00
21828;BME280;11076;47.942;11.804;2022-12-18T06:37:40;95418.31;;;-5.75;100.00
21828;BME280;11076;47.942;11.804;2022-12-18T06:42:42;95435.28;;;-5.82;100.00
21828;BME280;11076;47.942;11.804;2022-12-18T06:47:45;95416.97;;;-5.81;100.00
21828;BME280;11076;47.942;11.804;2022-12-18T06:52:47;95430.25;;;-5.85;100.00
21828;BME280;11076;47.942;11.804;2022-12-18T06:57:49;95431.47;;;-5.91;100.00
21828;BME280;11076;47.942;11.804;2022-12-18T07:02:52;95438.25;;;-5.88;100.00
21828;BME280;11076;47.942;11.804;2022-12-18T07:07:54;95454.16;;;-5.93;100.00
21828;BME280;11076;47.942;11.804;2022-12-18T07:12:56;95462.91;;;-5.94;100.00
21828;BME280;11076;47.942;11.804;2022-12-18T07:17:59;95458.66;;;-4.83;100.00
21828;BME280;11076;47.942;11.804;2022-12-18T07:23:02;95466.09;;;-5.18;100.00
21828;BME280;11076;47.942;11.804;2022-12-18T07:28:05;95476.22;;;-5.41;100.00
21828;BME280;11076;47.942;11.804;2022-12-18T07:33:08;95479.66;;;-5.55;100.00
21828;BME280;11076;47.942;11.804;2022-12-18T07:38:10;95485.50;;;-5.51;100.00
21828;BME280;11076;47.942;11.804;2022-12-18T07:43:12;95483.91;;;-5.40;100.00
21828;BME280;11076;47.942;11.804;2022-12-18T07:48:15;95487.47;;;-5.41;100.00
21828;BME280;11076;47.942;11.804;2022-12-18T07:53:17;95504.22;;;-5.45;100.00
21828;BME280;11076;47.942;11.804;2022-12-18T07:58:19;95494.94;;;-5.49;100.00
21828;BME280;11076;47.942;11.804;2022-12-18T08:03:22;95496.19;;;-5.42;100.00
21828;BME280;11076;47.942;11.804;2022-12-18T08:08:24;95489.03;;;-5.38;100.00
21828;BME280;11076;47.942;11.804;2022-12-18T08:13:27;95499.75;;;-5.43;100.00
21828;BME280;11076;47.942;11.804;2022-12-18T08:18:34;95492.47;;;-5.37;100.00
21828;BME280;11076;47.942;11.804;2022-12-18T08:23:37;95498.25;;;-5.32;100.00
21828;BME280;11076;47.942;11.804;2022-12-18T08:28:43;95504.47;;;-5.21;100.00
21828;BME280;11076;47.942;11.804;2022-12-18T08:33:48;95504.22;;;-5.30;100.00
21828;BME280;11076;47.942;11.804;2022-12-18T08:38:51;95510.53;;;-5.20;100.00
21828;BME280;11076;47.942;11.804;2022-12-18T08:43:54;95517.00;;;-4.98;100.00
21828;BME280;11076;47.942;11.804;2022-12-18T08:49:15;95506.13;;;-4.78;100.00
21828;BME280;11076;47.942;11.804;2022-12-18T08:54:17;95526.03;;;-4.63;100.00
21828;BME280;11076;47.942;11.804;2022-12-18T08:59:20;95526.03;;;-4.63;100.00
21828;BME280;11076;47.942;11.804;2022-12-18T09:04:22;95521.72;;;-4.36;100.00
21828;BME280;11076;47.942;11.804;2022-12-18T09:09:25;95518.94;;;-4.61;98.07
21828;BME280;11076;47.942;11.804;2022-12-18T09:14:27;95514.63;;;-4.47;98.44
21828;BME280;11076;47.942;11.804;2022-12-18T09:19:29;95512.25;;;-4.25;97.10
21828;BME280;11076;47.942;11.804;2022-12-18T09:24:32;95521.00;;;-4.38;96.46
21828;BME280;11076;47.942;11.804;2022-12-18T09:29:34;95515.59;;;-4.23;95.34
21828;BME280;11076;47.942;11.804;2022-12-18T09:34:36;95529.78;;;-4.00;95.35
21828;BME280;11076;47.942;11.804;2022-12-18T09:39:39;95517.94;;;-4.05;95.06
21828;BME280;11076;47.942;11.804;2022-12-18T09:44:44;95516.56;;;-3.98;95.09
21828;BME280;11076;47.942;11.804;2022-12-18T09:49:53;95509.69;;;-3.99;94.23
21828;BME280;11076;47.942;11.804;2022-12-18T09:55:23;95522.97;;;-3.76;92.99
21828;BME280;11076;47.942;11.804;2022-12-18T10:00:26;95515.56;;;-3.83;91.97
21828;BME280;11076;47.942;11.804;2022-12-18T10:11:24;95510.34;;;-3.57;93.32
21828;BME280;11076;47.942;11.804;2022-12-18T10:16:36;95498.41;;;-3.35;92.61
21828;BME280;11076;47.942;11.804;2022-12-18T10:26:59;95487.84;;;-3.47;88.65
21828;BME280;11076;47.942;11.804;2022-12-18T10:32:19;95477.25;;;-3.32;88.55
21828;BME280;11076;47.942;11.804;2022-12-18T10:37:25;95471.38;;;-3.23;90.93
21828;BME280;11076;47.942;11.804;2022-12-18T10:42:27;95477.25;;;-3.20;89.57
21828;BME280;11076;47.942;11.804;2022-12-18T10:47:30;95475.00;;;-3.13;89.20
21828;BME280;11076;47.942;11.804;2022-12-18T10:52:32;95468.84;;;-3.12;87.78
21828;BME280;11076;47.942;11.804;2022-12-18T10:57:36;95473.72;;;-3.31;86.40
21828;BME280;11076;47.942;11.804;2022-12-18T11:02:42;95470.56;;;-3.24;87.80
21828;BME280;11076;47.942;11.804;2022-12-18T11:07:49;95473.91;;;-3.34;88.03
21828;BME280;11076;47.942;11.804;2022-12-18T11:12:52;95465.56;;;-3.40;86.62
21828;BME280;11076;47.942;11.804;2022-12-18T11:17:55;95468.19;;;-3.40;88.47
21828;BME280;11076;47.942;11.804;2022-12-18T11:28:25;95455.72;;;-2.75;87.28
21828;BME280;11076;47.942;11.804;2022-12-18T11:33:27;95470.44;;;-2.85;85.80
21828;BME280;11076;47.942;11.804;2022-12-18T11:38:39;95471.19;;;-3.20;84.49
21828;BME280;11076;47.942;11.804;2022-12-18T11:49:03;95466.88;;;-2.84;88.31
21828;BME280;11076;47.942;11.804;2022-12-18T11:54:13;95461.97;;;-2.65;87.52
21828;BME280;11076;47.942;11.804;2022-12-18T12:04:48;95452.66;;;-2.45;86.25
21828;BME280;11076;47.942;11.804;2022-12-18T12:21:36;95455.91;;;-2.89;85.04
21828;BME280;11076;47.942;11.804;2022-12-18T12:37:05;95445.22;;;-3.23;86.54
21828;BME280;11076;47.942;11.804;2022-12-18T12:47:45;95419.13;;;-3.36;86.65
21828;BME280;11076;47.942;11.804;2022-12-18T12:52:53;95426.97;;;-3.49;88.49
21828;BME280;11076;47.942;11.804;2022-12-18T12:58:10;95423.13;;;-3.56;87.85
21828;BME280;11076;47.942;11.804;2022-12-18T13:08:56;95423.72;;;-3.40;88.01
21828;BME280;11076;47.942;11.804;2022-12-18T13:13:58;95420.03;;;-3.37;88.78
21828;BME280;11076;47.942;11.804;2022-12-18T13:19:01;95437.09;;;-3.31;88.40
21828;BME280;11076;47.942;11.804;2022-12-18T13:24:26;95437.00;;;-3.06;88.31
21828;BME280;11076;47.942;11.804;2022-12-18T13:29:45;95438.75;;;-3.30;88.37
21828;BME280;11076;47.942;11.804;2022-12-18T13:34:47;95439.28;;;-3.25;88.34
21828;BME280;11076;47.942;11.804;2022-12-18T13:39:50;95450.50;;;-3.36;88.96
21828;BME280;11076;47.942;11.804;2022-12-18T13:44:53;95454.28;;;-3.40;89.61
21828;BME280;11076;47.942;11.804;2022-12-18T13:49:56;95461.59;;;-3.45;89.63
21828;BME280;11076;47.942;11.804;2022-12-18T13:54:59;95461.19;;;-3.65;89.85
21828;BME280;11076;47.942;11.804;2022-12-18T14:05:36;95460.47;;;-3.92;90.71
21828;BME280;11076;47.942;11.804;2022-12-18T14:10:45;95455.75;;;-4.00;90.96
21828;BME280;11076;47.942;11.804;2022-12-18T14:15:48;95444.88;;;-4.32;91.41
21828;BME280;11076;47.942;11.804;2022-12-18T14:20:54;95452.16;;;-4.50;92.11
21828;BME280;11076;47.942;11.804;2022-12-18T14:25:59;95445.47;;;-4.54;92.77
21828;BME280;11076;47.942;11.804;2022-12-18T14:31:17;95444.47;;;-4.66;93.50
21828;BME280;11076;47.942;11.804;2022-12-18T14:36:26;95448.53;;;-4.75;94.03
21828;BME280;11076;47.942;11.804;2022-12-18T14:41:28;95450.81;;;-4.83;94.80
21828;BME280;11076;47.942;11.804;2022-12-18T14:46:39;95443.97;;;-4.98;95.58
21828;BME280;11076;47.942;11.804;2022-12-18T14:52:04;95440.38;;;-5.10;95.79
21828;BME280;11076;47.942;11.804;2022-12-18T14:57:34;95437.50;;;-5.20;97.08
21828;BME280;11076;47.942;11.804;2022-12-18T15:02:38;95442.38;;;-5.28;97.71
21828;BME280;11076;47.942;11.804;2022-12-18T15:07:46;95439.78;;;-5.28;98.19
21828;BME280;11076;47.942;11.804;2022-12-18T15:18:11;95432.50;;;-5.65;99.26
21828;BME280;11076;47.942;11.804;2022-12-18T15:28:50;95450.44;;;-5.60;100.00
21828;BME280;11076;47.942;11.804;2022-12-18T15:38:55;95440.38;;;-5.52;100.00
21828;BME280;11076;47.942;11.804;2022-12-18T15:43:59;95448.19;;;-5.52;99.96
21828;BME280;11076;47.942;11.804;2022-12-18T15:49:02;95458.34;;;-5.62;100.00
21828;BME280;11076;47.942;11.804;2022-12-18T15:54:09;95442.22;;;-5.54;100.00
21828;BME280;11076;47.942;11.804;2022-12-18T15:59:18;95441.88;;;-5.62;100.00
21828;BME280;11076;47.942;11.804;2022-12-18T16:04:22;95447.09;;;-5.62;100.00
21828;BME280;11076;47.942;11.804;2022-12-18T16:09:24;95453.78;;;-5.58;100.00
21828;BME280;11076;47.942;11.804;2022-12-18T16:14:31;95450.91;;;-5.68;100.00
21828;BME280;11076;47.942;11.804;2022-12-18T16:19:33;95442.25;;;-5.68;100.00
21828;BME280;11076;47.942;11.804;2022-12-18T16:24:35;95441.44;;;-5.69;100.00
21828;BME280;11076;47.942;11.804;2022-12-18T16:29:38;95446.91;;;-5.73;100.00
21828;BME280;11076;47.942;11.804;2022-12-18T16:34:41;95434.34;;;-5.67;100.00
21828;BME280;11076;47.942;11.804;2022-12-18T16:39:44;95432.66;;;-5.68;100.00
21828;BME280;11076;47.942;11.804;2022-12-18T16:44:48;95424.47;;;-5.62;100.00
21828;BME280;11076;47.942;11.804;2022-12-18T16:49:50;95427.06;;;-5.62;100.00
21828;BME280;11076;47.942;11.804;2022-12-18T16:54:54;95422.25;;;-5.68;100.00
21828;BME280;11076;47.942;11.804;2022-12-18T16:59:56;95411.63;;;-5.65;100.00
21828;BME280;11076;47.942;11.804;2022-12-18T17:05:02;95412.75;;;-5.69;100.00
21828;BME280;11076;47.942;11.804;2022-12-18T17:10:05;95416.38;;;-5.71;100.00
21828;BME280;11076;47.942;11.804;2022-12-18T17:15:08;95422.72;;;-5.75;100.00
21828;BME280;11076;47.942;11.804;2022-12-18T17:20:10;95418.25;;;-5.73;100.00
21828;BME280;11076;47.942;11.804;2022-12-18T17:25:13;95418.63;;;-5.80;100.00
21828;BME280;11076;47.942;11.804;2022-12-18T17:30:15;95422.72;;;-5.90;100.00
21828;BME280;11076;47.942;11.804;2022-12-18T17:35:17;95429.25;;;-5.83;100.00
21828;BME280;11076;47.942;11.804;2022-12-18T17:40:20;95425.69;;;-5.82;100.00
21828;BME280;11076;47.942;11.804;2022-12-18T17:45:22;95431.72;;;-5.81;100.00
21828;BME280;11076;47.942;11.804;2022-12-18T17:50:24;95429.31;;;-5.70;100.00
21828;BME280;11076;47.942;11.804;2022-12-18T17:55:27;95427.38;;;-5.81;100.00
21828;BME280;11076;47.942;11.804;2022-12-18T18:00:30;95423.84;;;-5.80;100.00
21828;BME280;11076;47.942;11.804;2022-12-18T18:05:32;95425.53;;;-5.78;100.00
21828;BME280;11076;47.942;11.804;2022-12-18T18:10:36;95413.41;;;-5.80;100.00
21828;BME280;11076;47.942;11.804;2022-12-18T18:15:39;95416.00;;;-5.80;100.00
21828;BME280;11076;47.942;11.804;2022-12-18T18:20:41;95428.66;;;-5.73;100.00
21828;BME280;11076;47.942;11.804;2022-12-18T18:25:44;95424.00;;;-5.68;100.00
21828;BME280;11076;47.942;11.804;2022-12-18T18:30:47;95429.22;;;-5.68;100.00
21828;BME280;11076;47.942;11.804;2022-12-18T18:35:50;95418.63;;;-5.80;100.00
21828;BME280;11076;47.942;11.804;2022-12-18T18:41:02;95419.38;;;-5.92;100.00
21828;BME280;11076;47.942;11.804;2022-12-18T18:46:05;95422.75;;;-6.04;100.00
21828;BME280;11076;47.942;11.804;2022-12-18T18:51:11;95414.81;;;-5.88;100.00
21828;BME280;11076;47.942;11.804;2022-12-18T18:56:15;95412.88;;;-5.85;100.00
21828;BME280;11076;47.942;11.804;2022-12-18T19:01:38;95414.63;;;-5.71;100.00
21828;BME280;11076;47.942;11.804;2022-12-18T19:06:40;95406.31;;;-5.63;100.00
21828;BME280;11076;47.942;11.804;2022-12-18T19:11:43;95404.09;;;-5.69;100.00
21828;BME280;11076;47.942;11.804;2022-12-18T19:17:04;95398.16;;;-5.86;100.00
21828;BME280;11076;47.942;11.804;2022-12-18T19:22:07;95398.97;;;-6.12;100.00
21828;BME280;11076;47.942;11.804;2022-12-18T19:27:10;95392.63;;;-6.08;100.00
21828;BME280;11076;47.942;11.804;2022-12-18T19:32:12;95378.94;;;-5.97;100.00
21828;BME280;11076;47.942;11.804;2022-12-18T19:37:15;95375.69;;;-6.01;100.00
21828;BME280;11076;47.942;11.804;2022-12-18T19:42:17;95375.97;;;-6.06;100.00
21828;BME280;11076;47.942;11.804;2022-12-18T19:47:24;95365.94;;;-6.12;100.00
21828;BME280;11076;47.942;11.804;2022-12-18T19:52:26;95374.03;;;-6.16;100.00
21828;BME280;11076;47.942;11.804;2022-12-18T19:57:30;95365.00;;;-6.11;100.00
21828;BME280;11076;47.942;11.804;2022-12-18T20:02:32;95364.72;;;-6.06;100.00
21828;BME280;11076;47.942;11.804;2022-12-18T20:07:37;95365.56;;;-6.06;100.00
21828;BME280;11076;47.942;11.804;2022-12-18T20:12:40;95365.56;;;-6.06;100.00
21828;BME280;11076;47.942;11.804;2022-12-18T20:17:42;95365.28;;;-6.01;100.00
21828;BME280;11076;47.942;11.804;2022-12-18T20:22:44;95367.50;;;-5.95;100.00
21828;BME280;11076;47.942;11.804;2022-12-18T20:27:47;95367.28;;;-5.92;100.00
21828;BME280;11076;47.942;11.804;2022-12-18T20:32:49;95370.81;;;-5.78;100.00
21828;BME280;11076;47.942;11.804;2022-12-18T20:37:51;95361.84;;;-5.60;100.00
21828;BME280;11076;47.942;11.804;2022-12-18T20:42:54;95367.22;;;-5.63;100.00
21828;BME280;11076;47.942;11.804;2022-12-18T20:47:56;95360.34;;;-5.64;100.00
21828;BME280;11076;47.942;11.804;2022-12-18T20:53:00;95360.16;;;-5.61;100.00
21828;BME280;11076;47.942;11.804;2022-12-18T20:58:02;95355.34;;;-5.82;100.00
21828;BME280;11076;47.942;11.804;2022-12-18T21:03:05;95358.34;;;-5.88;100.00
21828;BME280;11076;47.942;11.804;2022-12-18T21:08:08;95347.53;;;-5.82;100.00
21828;BME280;11076;47.942;11.804;2022-12-18T21:13:10;95344.03;;;-5.81;100.00
21828;BME280;11076;47.942;11.804;2022-12-18T21:18:12;95354.22;;;-5.77;100.00
21828;BME280;11076;47.942;11.804;2022-12-18T21:23:15;95368.53;;;-5.56;100.00
21828;BME280;11076;47.942;11.804;2022-12-18T21:28:18;95357.91;;;-5.53;100.00
21828;BME280;11076;47.942;11.804;2022-12-18T21:33:20;95345.69;;;-5.80;100.00
21828;BME280;11076;47.942;11.804;2022-12-18T21:38:22;95341.56;;;-5.69;100.00
21828;BME280;11076;47.942;11.804;2022-12-18T21:43:25;95344.91;;;-5.67;100.00
21828;BME280;11076;47.942;11.804;2022-12-18T21:48:46;95337.69;;;-5.76;100.00
21828;BME280;11076;47.942;11.804;2022-12-18T21:53:48;95338.47;;;-5.89;100.00
21828;BME280;11076;47.942;11.804;2022-12-18T21:58:50;95328.97;;;-5.90;100.00
21828;BME280;11076;47.942;11.804;2022-12-18T22:03:53;95324.69;;;-5.91;100.00
21828;BME280;11076;47.942;11.804;2022-12-18T22:08:55;95313.31;;;-6.17;100.00
21828;BME280;11076;47.942;11.804;2022-12-18T22:13:57;95311.56;;;-6.45;100.00
21828;BME280;11076;47.942;11.804;2022-12-18T22:19:00;95317.06;;;-6.64;100.00
21828;BME280;11076;47.942;11.804;2022-12-18T22:24:05;95329.19;;;-6.79;100.00
21828;BME280;11076;47.942;11.804;2022-12-18T22:29:16;95330.66;;;-6.75;100.00
21828;BME280;11076;47.942;11.804;2022-12-18T22:34:38;95329.41;;;-6.68;100.00
21828;BME280;11076;47.942;11.804;2022-12-18T22:39:41;95313.22;;;-6.58;100.00
21828;BME280;11076;47.942;11.804;2022-12-18T22:44:43;95324.03;;;-6.50;100.00
21828;BME280;11076;47.942;11.804;2022-12-18T22:49:45;95320.97;;;-6.28;100.00
21828;BME280;11076;47.942;11.804;2022-12-18T22:54:48;95329.56;;;-6.13;100.00
21828;BME280;11076;47.942;11.804;2022-12-18T22:59:50;95320.19;;;-6.16;100.00
21828;BME280;11076;47.942;11.804;2022-12-18T23:04:53;95322.50;;;-6.11;100.00
21828;BME280;11076;47.942;11.804;2022-12-18T23:09:55;95317.59;;;-6.16;100.00
21828;BME280;11076;47.942;11.804;2022-12-18T23:14:57;95309.41;;;-6.24;100.00
21828;BME280;11076;47.942;11.804;2022-12-18T23:20:00;95308.56;;;-6.25;100.00
21828;BME280;11076;47.942;11.804;2022-12-18T23:25:03;95320.94;;;-6.14;100.00
21828;BME280;11076;47.942;11.804;2022-12-18T23:30:05;95297.16;;;-6.22;100.00
21828;BME280;11076;47.942;11.804;2022-12-18T23:35:08;95284.59;;;-6.30;100.00
21828;BME280;11076;47.942;11.804;2022-12-18T23:40:11;95279.19;;;-6.27;100.00
21828;BME280;11076;47.942;11.804;2022-12-18T23:45:13;95271.84;;;-6.20;100.00
21828;BME280;11076;47.942;11.804;2022-12-18T23:50:16;95276.97;;;-6.18;100.00
21828;BME280;11076;47.942;11.804;2022-12-18T23:55:18;95260.63;;;-6.21;100.00
